Terminal Aerodrome Forecast
Issued by NWS North Platte, NE

Home | Current Version | Previous Version | Text Only | Print | Product List | Glossary On
Versions: 1 2 3 4 5 6 7 8 9 10 11 12 13 14 15 16
000
FTUS43 KLBF 221120
TAFLBF
TAF
KLBF 221120Z 2212/2312 30007KT P6SM FEW250
     FM221700 30011KT P6SM FEW250
     FM230000 32005KT P6SM SCT250
     FM230200 02005KT P6SM BKN200
     FM230600 05010G17KT P6SM BKN150=

USA.gov is the U.S. government's official web portal to all federal, state and local government web resources and services.